Sheldons Grove, Illinois
Current Conditions -  °F | °C
As of 5:15 AM on Sunday 21 Dec 2014 (Local Time) from KIJX Reporting Station
Overcast Overcast  
Wind Chill: 35°   Ceiling: 2600
Heat Index: 40°   Visibility: 10mi
Dew Point: 34°   Wind: 7mph
Humidity: 80%   Direction: 160°SSE
Pressure: 30.19"   Gusts: NA
Location:  40.1574°N, 90.35°W
Report Text: KIJX 211115Z AUTO 16006KT 10SM OVC026 04/01 A3019 RMK AO2 T00430012
Loading
Personal Weather Stations






























Interactive Weather Map New forecast layout! Learn more

10-Day Weather Forecast

Advertisements
Track Severe Weather on mobile